Portada
METAR-TAF:

METAR-TAF

Aeroports :

Koror, Babeldaob, Palau

latitud: 07-22N, longitud: 134-32E, altitud: 54 m

Observació

L'informe es va fer fa 12 minuts, a les 09:50 UTC
Vent 10 kt del Est/Nord-Est amb ràfegues de 15 kt
Temperatura 28°C
Humitat 79%
Pressió 1009 hPa
Visibilitat: 24.1 km
Núvols disperses a una alçada de 1600 ft
Cel ennuvolat a una alçada de 12000 ft
Cel ennuvolat a una alçada de 30000 ft

METAR: PTRO 220950Z 06010G15KT 15SM SCT016 BKN120 BKN300 28/24 A2979

Hora: 19:02 (10:02 UTC)

Pronòstic

L'informe es va fer fa 4 hores i 36 minuts, a les 05:26 UTC
Pronòstic vàlid del 22 a les 06 UTC al 23 a les 06 UTC
Vent 12 kt del Nord-Est amb ràfegues de 20 kt
Visibilitat: 10 km
Núvols disperses a una alçada de 1600 ft
Núvols disperses a una alçada de 12000 ft
A partir de les 22 a les 0900 UTC
Vent 8 kt del Nord-Est
Visibilitat: 10 km
Núvols disperses a una alçada de 1600 ft

TAF: PTRO 220526Z 2206/2306 05012G20KT P6SM SCT016 SCT120 FM220900 05008KT P6SM SCT016

Observacions i pronòstics meteorològics de més de 4000 aeroports (METAR i TAF).

Les estacions disponibles són els punts grocs i vermells al mapa.

Posi el ratolí al punt desitjat per veure el nom de l'estació.

Feu clic per veure les observacions i els pronòstics meteorològics.

Per canviar el mapa: feu clic els botons verds amb una creu de color negre per apropar; al botó verd amb un guió per allunyar la imatge; o en les fletxes verdes per a mapes adjacents.


METAR-TAF: